sensor_id;sensor_type;location;lat;lon;timestamp;temperature;humidity
26623;DHT22;14254;50.968;5.366;2022-07-29T00:01:21;16.90;99.90
26623;DHT22;14254;50.968;5.366;2022-07-29T00:03:47;17.00;99.90
26623;DHT22;14254;50.968;5.366;2022-07-29T00:06:14;17.00;99.90
26623;DHT22;14254;50.968;5.366;2022-07-29T00:08:39;17.10;99.90
26623;DHT22;14254;50.968;5.366;2022-07-29T00:11:05;17.10;99.90
26623;DHT22;14254;50.968;5.366;2022-07-29T00:13:31;17.00;99.90
26623;DHT22;14254;50.968;5.366;2022-07-29T00:15:56;17.10;99.90
26623;DHT22;14254;50.968;5.366;2022-07-29T00:18:22;17.10;99.90
26623;DHT22;14254;50.968;5.366;2022-07-29T00:20:48;17.10;99.90
26623;DHT22;14254;50.968;5.366;2022-07-29T00:23:13;17.10;99.90
26623;DHT22;14254;50.968;5.366;2022-07-29T00:25:39;17.20;99.90
26623;DHT22;14254;50.968;5.366;2022-07-29T00:28:05;17.30;99.90
26623;DHT22;14254;50.968;5.366;2022-07-29T00:30:31;17.30;99.90
26623;DHT22;14254;50.968;5.366;2022-07-29T00:32:56;17.40;99.90
26623;DHT22;14254;50.968;5.366;2022-07-29T00:35:22;17.40;99.90
26623;DHT22;14254;50.968;5.366;2022-07-29T00:38:06;17.50;99.90
26623;DHT22;14254;50.968;5.366;2022-07-29T00:40:32;17.50;99.90
26623;DHT22;14254;50.968;5.366;2022-07-29T00:42:57;17.50;99.90
26623;DHT22;14254;50.968;5.366;2022-07-29T00:45:23;17.40;99.90
26623;DHT22;14254;50.968;5.366;2022-07-29T00:47:49;17.50;99.90
26623;DHT22;14254;50.968;5.366;2022-07-29T00:50:14;17.40;99.90
26623;DHT22;14254;50.968;5.366;2022-07-29T00:52:41;17.40;99.90
26623;DHT22;14254;50.968;5.366;2022-07-29T00:55:10;17.40;99.90
26623;DHT22;14254;50.968;5.366;2022-07-29T00:57:36;17.40;99.90
26623;DHT22;14254;50.968;5.366;2022-07-29T01:00:06;17.30;99.90
26623;DHT22;14254;50.968;5.366;2022-07-29T01:02:32;17.30;99.90
26623;DHT22;14254;50.968;5.366;2022-07-29T01:04:58;17.30;99.90
26623;DHT22;14254;50.968;5.366;2022-07-29T01:07:27;17.30;99.90
26623;DHT22;14254;50.968;5.366;2022-07-29T01:09:55;17.30;99.90
26623;DHT22;14254;50.968;5.366;2022-07-29T01:12:25;17.30;99.90
26623;DHT22;14254;50.968;5.366;2022-07-29T01:14:53;17.20;99.90
26623;DHT22;14254;50.968;5.366;2022-07-29T01:20:11;17.20;99.90
26623;DHT22;14254;50.968;5.366;2022-07-29T01:31:03;17.30;99.90
26623;DHT22;14254;50.968;5.366;2022-07-29T01:33:32;17.30;99.90
26623;DHT22;14254;50.968;5.366;2022-07-29T01:36:22;17.10;99.90
26623;DHT22;14254;50.968;5.366;2022-07-29T01:38:56;16.80;99.90
26623;DHT22;14254;50.968;5.366;2022-07-29T01:41:24;16.50;99.90
26623;DHT22;14254;50.968;5.366;2022-07-29T01:44:01;16.40;99.90
26623;DHT22;14254;50.968;5.366;2022-07-29T01:46:33;16.20;99.90
26623;DHT22;14254;50.968;5.366;2022-07-29T01:49:10;16.30;99.90
26623;DHT22;14254;50.968;5.366;2022-07-29T01:51:41;16.30;99.90
26623;DHT22;14254;50.968;5.366;2022-07-29T01:54:16;16.30;99.90
26623;DHT22;14254;50.968;5.366;2022-07-29T01:56:45;16.30;99.90
26623;DHT22;14254;50.968;5.366;2022-07-29T01:59:12;16.40;99.90
26623;DHT22;14254;50.968;5.366;2022-07-29T02:01:39;16.30;99.90
26623;DHT22;14254;50.968;5.366;2022-07-29T02:04:07;16.30;99.90
26623;DHT22;14254;50.968;5.366;2022-07-29T02:06:37;16.20;99.90
26623;DHT22;14254;50.968;5.366;2022-07-29T02:09:04;16.20;99.90
26623;DHT22;14254;50.968;5.366;2022-07-29T02:11:33;16.10;99.90
26623;DHT22;14254;50.968;5.366;2022-07-29T02:14:00;16.00;99.90
26623;DHT22;14254;50.968;5.366;2022-07-29T02:16:28;16.00;99.90
26623;DHT22;14254;50.968;5.366;2022-07-29T02:18:56;16.00;99.90
26623;DHT22;14254;50.968;5.366;2022-07-29T02:21:25;15.90;99.90
26623;DHT22;14254;50.968;5.366;2022-07-29T02:23:52;15.80;99.90
26623;DHT22;14254;50.968;5.366;2022-07-29T02:26:20;15.60;99.90
26623;DHT22;14254;50.968;5.366;2022-07-29T02:28:49;15.60;99.90
26623;DHT22;14254;50.968;5.366;2022-07-29T02:31:16;15.50;99.90
26623;DHT22;14254;50.968;5.366;2022-07-29T02:33:43;15.60;99.90
26623;DHT22;14254;50.968;5.366;2022-07-29T02:36:09;15.60;99.90
26623;DHT22;14254;50.968;5.366;2022-07-29T02:38:36;15.70;99.90
26623;DHT22;14254;50.968;5.366;2022-07-29T02:41:41;15.80;99.90
26623;DHT22;14254;50.968;5.366;2022-07-29T02:44:10;15.80;99.90
26623;DHT22;14254;50.968;5.366;2022-07-29T02:46:39;15.80;99.90
26623;DHT22;14254;50.968;5.366;2022-07-29T02:49:31;15.90;99.90
26623;DHT22;14254;50.968;5.366;2022-07-29T02:52:02;15.90;99.90
26623;DHT22;14254;50.968;5.366;2022-07-29T02:57:20;16.00;99.90
26623;DHT22;14254;50.968;5.366;2022-07-29T02:59:51;16.00;99.90
26623;DHT22;14254;50.968;5.366;2022-07-29T03:02:18;16.10;99.90
26623;DHT22;14254;50.968;5.366;2022-07-29T03:04:46;16.10;99.90
26623;DHT22;14254;50.968;5.366;2022-07-29T03:07:15;16.10;99.90
26623;DHT22;14254;50.968;5.366;2022-07-29T03:09:44;16.20;99.90
26623;DHT22;14254;50.968;5.366;2022-07-29T03:12:11;16.30;99.90
26623;DHT22;14254;50.968;5.366;2022-07-29T03:14:38;16.40;99.90
26623;DHT22;14254;50.968;5.366;2022-07-29T03:17:04;16.30;99.90
26623;DHT22;14254;50.968;5.366;2022-07-29T03:19:31;16.30;99.90
26623;DHT22;14254;50.968;5.366;2022-07-29T03:21:58;16.30;99.90
26623;DHT22;14254;50.968;5.366;2022-07-29T03:24:36;16.30;99.90
26623;DHT22;14254;50.968;5.366;2022-07-29T03:27:03;16.20;99.90
26623;DHT22;14254;50.968;5.366;2022-07-29T03:29:31;16.20;99.90
26623;DHT22;14254;50.968;5.366;2022-07-29T03:31:56;16.20;99.90
26623;DHT22;14254;50.968;5.366;2022-07-29T03:34:22;16.10;99.90
26623;DHT22;14254;50.968;5.366;2022-07-29T03:36:48;16.10;99.90
26623;DHT22;14254;50.968;5.366;2022-07-29T03:39:21;16.00;99.90
26623;DHT22;14254;50.968;5.366;2022-07-29T03:41:49;16.10;99.90
26623;DHT22;14254;50.968;5.366;2022-07-29T03:44:18;16.20;99.90
26623;DHT22;14254;50.968;5.366;2022-07-29T03:46:46;16.30;99.90
26623;DHT22;14254;50.968;5.366;2022-07-29T03:49:15;16.30;99.90
26623;DHT22;14254;50.968;5.366;2022-07-29T03:51:41;16.40;99.90
26623;DHT22;14254;50.968;5.366;2022-07-29T03:54:07;16.50;99.90
26623;DHT22;14254;50.968;5.366;2022-07-29T03:56:36;16.70;99.90
26623;DHT22;14254;50.968;5.366;2022-07-29T03:59:03;16.80;99.90
26623;DHT22;14254;50.968;5.366;2022-07-29T04:01:29;16.80;99.90
26623;DHT22;14254;50.968;5.366;2022-07-29T04:03:56;16.90;99.90
26623;DHT22;14254;50.968;5.366;2022-07-29T04:06:22;16.90;99.90
26623;DHT22;14254;50.968;5.366;2022-07-29T04:08:47;17.00;99.90
26623;DHT22;14254;50.968;5.366;2022-07-29T04:11:13;16.70;99.90
26623;DHT22;14254;50.968;5.366;2022-07-29T04:13:39;16.60;99.90
26623;DHT22;14254;50.968;5.366;2022-07-29T04:16:04;16.50;99.90
26623;DHT22;14254;50.968;5.366;2022-07-29T04:18:30;16.60;99.90
26623;DHT22;14254;50.968;5.366;2022-07-29T04:20:56;16.80;99.90
26623;DHT22;14254;50.968;5.366;2022-07-29T04:23:24;16.90;99.90
26623;DHT22;14254;50.968;5.366;2022-07-29T04:25:49;16.90;99.90
26623;DHT22;14254;50.968;5.366;2022-07-29T04:28:15;17.00;99.90
26623;DHT22;14254;50.968;5.366;2022-07-29T04:30:41;16.80;99.90
26623;DHT22;14254;50.968;5.366;2022-07-29T04:33:07;16.80;99.90
26623;DHT22;14254;50.968;5.366;2022-07-29T04:35:37;16.70;99.90
26623;DHT22;14254;50.968;5.366;2022-07-29T04:38:04;16.60;99.90
26623;DHT22;14254;50.968;5.366;2022-07-29T04:40:30;16.40;99.90
26623;DHT22;14254;50.968;5.366;2022-07-29T04:42:56;16.40;99.90
26623;DHT22;14254;50.968;5.366;2022-07-29T04:45:22;16.40;99.90
26623;DHT22;14254;50.968;5.366;2022-07-29T04:47:47;16.40;99.90
26623;DHT22;14254;50.968;5.366;2022-07-29T04:50:13;16.30;99.90
26623;DHT22;14254;50.968;5.366;2022-07-29T04:52:38;16.20;99.90
26623;DHT22;14254;50.968;5.366;2022-07-29T04:55:05;16.10;99.90
26623;DHT22;14254;50.968;5.366;2022-07-29T04:57:31;16.30;99.90
26623;DHT22;14254;50.968;5.366;2022-07-29T04:59:56;16.60;99.90
26623;DHT22;14254;50.968;5.366;2022-07-29T05:02:22;16.80;99.90
26623;DHT22;14254;50.968;5.366;2022-07-29T05:04:48;17.00;99.90
26623;DHT22;14254;50.968;5.366;2022-07-29T05:07:14;17.00;99.90
26623;DHT22;14254;50.968;5.366;2022-07-29T05:09:40;16.90;99.90
26623;DHT22;14254;50.968;5.366;2022-07-29T05:12:06;17.00;99.90
26623;DHT22;14254;50.968;5.366;2022-07-29T05:14:32;17.00;99.90
26623;DHT22;14254;50.968;5.366;2022-07-29T05:16:58;17.10;99.90
26623;DHT22;14254;50.968;5.366;2022-07-29T05:19:23;17.10;99.90
26623;DHT22;14254;50.968;5.366;2022-07-29T05:21:49;17.10;99.90
26623;DHT22;14254;50.968;5.366;2022-07-29T05:24:16;17.00;99.90
26623;DHT22;14254;50.968;5.366;2022-07-29T05:26:41;17.10;99.90
26623;DHT22;14254;50.968;5.366;2022-07-29T05:29:07;17.10;99.90
26623;DHT22;14254;50.968;5.366;2022-07-29T05:31:33;16.90;99.90
26623;DHT22;14254;50.968;5.366;2022-07-29T05:33:59;17.00;99.90
26623;DHT22;14254;50.968;5.366;2022-07-29T05:36:25;17.10;99.90
26623;DHT22;14254;50.968;5.366;2022-07-29T05:38:51;17.10;99.90
26623;DHT22;14254;50.968;5.366;2022-07-29T05:41:18;17.10;99.90
26623;DHT22;14254;50.968;5.366;2022-07-29T05:43:43;17.20;99.90
26623;DHT22;14254;50.968;5.366;2022-07-29T05:46:09;17.00;99.90
26623;DHT22;14254;50.968;5.366;2022-07-29T05:48:35;16.90;99.90
26623;DHT22;14254;50.968;5.366;2022-07-29T05:51:01;16.80;99.90
26623;DHT22;14254;50.968;5.366;2022-07-29T05:53:26;16.80;99.90
26623;DHT22;14254;50.968;5.366;2022-07-29T05:55:52;16.70;99.90
26623;DHT22;14254;50.968;5.366;2022-07-29T05:58:18;16.80;99.90
26623;DHT22;14254;50.968;5.366;2022-07-29T06:00:45;17.00;99.90
26623;DHT22;14254;50.968;5.366;2022-07-29T06:03:10;17.00;99.90
26623;DHT22;14254;50.968;5.366;2022-07-29T06:05:36;16.90;99.90
26623;DHT22;14254;50.968;5.366;2022-07-29T06:08:02;16.90;99.90
26623;DHT22;14254;50.968;5.366;2022-07-29T06:10:28;16.80;99.90
26623;DHT22;14254;50.968;5.366;2022-07-29T06:12:54;16.90;99.90
26623;DHT22;14254;50.968;5.366;2022-07-29T06:15:19;16.90;99.90
26623;DHT22;14254;50.968;5.366;2022-07-29T06:17:45;17.10;99.90
26623;DHT22;14254;50.968;5.366;2022-07-29T06:20:11;17.20;99.90
26623;DHT22;14254;50.968;5.366;2022-07-29T06:22:36;17.10;99.90
26623;DHT22;14254;50.968;5.366;2022-07-29T06:25:03;17.20;99.90
26623;DHT22;14254;50.968;5.366;2022-07-29T06:27:28;17.20;99.90
26623;DHT22;14254;50.968;5.366;2022-07-29T06:29:56;17.20;99.90
26623;DHT22;14254;50.968;5.366;2022-07-29T06:32:21;17.30;99.90
26623;DHT22;14254;50.968;5.366;2022-07-29T06:34:47;17.60;99.90
26623;DHT22;14254;50.968;5.366;2022-07-29T06:37:13;17.60;99.90
26623;DHT22;14254;50.968;5.366;2022-07-29T06:39:39;17.70;99.90
26623;DHT22;14254;50.968;5.366;2022-07-29T06:42:05;17.80;99.90
26623;DHT22;14254;50.968;5.366;2022-07-29T06:44:31;17.90;99.90
26623;DHT22;14254;50.968;5.366;2022-07-29T06:46:59;18.00;99.90
26623;DHT22;14254;50.968;5.366;2022-07-29T06:49:25;18.10;99.90
26623;DHT22;14254;50.968;5.366;2022-07-29T06:51:52;18.00;99.90
26623;DHT22;14254;50.968;5.366;2022-07-29T06:54:18;18.00;99.90
26623;DHT22;14254;50.968;5.366;2022-07-29T06:56:43;18.00;99.90
26623;DHT22;14254;50.968;5.366;2022-07-29T06:59:11;18.10;99.90
26623;DHT22;14254;50.968;5.366;2022-07-29T07:01:38;18.20;99.90
26623;DHT22;14254;50.968;5.366;2022-07-29T07:04:05;18.40;99.90
26623;DHT22;14254;50.968;5.366;2022-07-29T07:06:30;18.40;99.90
26623;DHT22;14254;50.968;5.366;2022-07-29T07:08:56;18.40;99.90
26623;DHT22;14254;50.968;5.366;2022-07-29T07:11:22;18.40;99.90
26623;DHT22;14254;50.968;5.366;2022-07-29T07:13:47;18.50;99.90
26623;DHT22;14254;50.968;5.366;2022-07-29T07:16:13;18.60;99.90
26623;DHT22;14254;50.968;5.366;2022-07-29T07:18:38;18.60;99.90
26623;DHT22;14254;50.968;5.366;2022-07-29T07:21:04;18.50;99.90
26623;DHT22;14254;50.968;5.366;2022-07-29T07:23:31;18.60;99.90
26623;DHT22;14254;50.968;5.366;2022-07-29T07:25:56;18.70;99.90
26623;DHT22;14254;50.968;5.366;2022-07-29T07:28:22;18.70;99.90
26623;DHT22;14254;50.968;5.366;2022-07-29T07:30:48;18.80;99.90
26623;DHT22;14254;50.968;5.366;2022-07-29T07:33:14;18.80;99.90
26623;DHT22;14254;50.968;5.366;2022-07-29T07:35:40;19.00;99.90
26623;DHT22;14254;50.968;5.366;2022-07-29T07:38:06;19.10;99.90
26623;DHT22;14254;50.968;5.366;2022-07-29T07:40:32;19.10;99.90
26623;DHT22;14254;50.968;5.366;2022-07-29T07:42:58;19.20;99.90
26623;DHT22;14254;50.968;5.366;2022-07-29T07:45:23;19.00;99.90
26623;DHT22;14254;50.968;5.366;2022-07-29T07:47:49;19.20;99.90
26623;DHT22;14254;50.968;5.366;2022-07-29T07:50:15;19.40;99.90
26623;DHT22;14254;50.968;5.366;2022-07-29T07:52:55;19.60;99.90
26623;DHT22;14254;50.968;5.366;2022-07-29T07:55:25;19.40;99.90
26623;DHT22;14254;50.968;5.366;2022-07-29T07:57:51;19.50;99.90
26623;DHT22;14254;50.968;5.366;2022-07-29T08:00:17;19.80;99.90
26623;DHT22;14254;50.968;5.366;2022-07-29T08:02:43;19.90;99.90
26623;DHT22;14254;50.968;5.366;2022-07-29T08:05:10;20.00;99.90
26623;DHT22;14254;50.968;5.366;2022-07-29T08:07:38;20.10;99.90
26623;DHT22;14254;50.968;5.366;2022-07-29T08:10:04;20.20;99.90
26623;DHT22;14254;50.968;5.366;2022-07-29T08:12:29;20.50;99.90
26623;DHT22;14254;50.968;5.366;2022-07-29T08:14:55;20.30;99.90
26623;DHT22;14254;50.968;5.366;2022-07-29T08:17:21;20.30;99.90
26623;DHT22;14254;50.968;5.366;2022-07-29T08:19:46;20.40;99.90
26623;DHT22;14254;50.968;5.366;2022-07-29T08:22:13;20.40;99.90
26623;DHT22;14254;50.968;5.366;2022-07-29T08:24:39;20.60;99.90
26623;DHT22;14254;50.968;5.366;2022-07-29T08:27:21;20.80;99.90
26623;DHT22;14254;50.968;5.366;2022-07-29T08:29:47;20.80;99.90
26623;DHT22;14254;50.968;5.366;2022-07-29T08:32:13;20.70;99.90
26623;DHT22;14254;50.968;5.366;2022-07-29T08:34:39;20.90;99.90
26623;DHT22;14254;50.968;5.366;2022-07-29T08:37:05;21.20;99.90
26623;DHT22;14254;50.968;5.366;2022-07-29T08:39:30;21.60;99.90
26623;DHT22;14254;50.968;5.366;2022-07-29T08:41:56;21.30;99.90
26623;DHT22;14254;50.968;5.366;2022-07-29T08:44:22;21.20;99.90
26623;DHT22;14254;50.968;5.366;2022-07-29T08:46:49;21.50;99.90
26623;DHT22;14254;50.968;5.366;2022-07-29T08:49:15;21.80;99.90
26623;DHT22;14254;50.968;5.366;2022-07-29T08:51:41;22.10;99.90
26623;DHT22;14254;50.968;5.366;2022-07-29T08:54:09;21.90;99.90
26623;DHT22;14254;50.968;5.366;2022-07-29T08:56:35;21.90;99.90
26623;DHT22;14254;50.968;5.366;2022-07-29T08:59:03;22.00;99.90
26623;DHT22;14254;50.968;5.366;2022-07-29T09:01:32;22.10;99.90
26623;DHT22;14254;50.968;5.366;2022-07-29T09:03:59;22.40;99.90
26623;DHT22;14254;50.968;5.366;2022-07-29T09:06:30;22.50;99.90
26623;DHT22;14254;50.968;5.366;2022-07-29T09:08:59;22.70;99.90
26623;DHT22;14254;50.968;5.366;2022-07-29T09:11:25;22.80;99.90
26623;DHT22;14254;50.968;5.366;2022-07-29T09:13:51;22.60;99.90
26623;DHT22;14254;50.968;5.366;2022-07-29T09:16:16;22.50;99.90
26623;DHT22;14254;50.968;5.366;2022-07-29T09:18:44;22.30;99.90
26623;DHT22;14254;50.968;5.366;2022-07-29T09:21:13;22.20;99.90
26623;DHT22;14254;50.968;5.366;2022-07-29T09:24:47;22.10;99.90
26623;DHT22;14254;50.968;5.366;2022-07-29T09:27:25;22.30;99.90
26623;DHT22;14254;50.968;5.366;2022-07-29T09:29:56;22.60;99.90
26623;DHT22;14254;50.968;5.366;2022-07-29T09:32:23;22.60;99.90
26623;DHT22;14254;50.968;5.366;2022-07-29T09:34:49;22.90;99.90
26623;DHT22;14254;50.968;5.366;2022-07-29T09:37:28;22.70;99.90
26623;DHT22;14254;50.968;5.366;2022-07-29T09:39:54;22.80;99.90
26623;DHT22;14254;50.968;5.366;2022-07-29T09:42:29;22.80;99.90
26623;DHT22;14254;50.968;5.366;2022-07-29T09:44:57;23.20;99.90
26623;DHT22;14254;50.968;5.366;2022-07-29T09:47:46;22.80;99.90
26623;DHT22;14254;50.968;5.366;2022-07-29T09:50:15;22.80;99.90
26623;DHT22;14254;50.968;5.366;2022-07-29T09:52:49;22.90;99.90
26623;DHT22;14254;50.968;5.366;2022-07-29T09:55:16;23.00;99.90
26623;DHT22;14254;50.968;5.366;2022-07-29T09:57:43;22.80;99.90
26623;DHT22;14254;50.968;5.366;2022-07-29T10:00:10;22.90;99.90
26623;DHT22;14254;50.968;5.366;2022-07-29T10:02:38;23.00;99.90
26623;DHT22;14254;50.968;5.366;2022-07-29T10:05:08;23.40;99.90
26623;DHT22;14254;50.968;5.366;2022-07-29T10:07:46;23.60;99.90
26623;DHT22;14254;50.968;5.366;2022-07-29T10:10:22;23.70;99.90
26623;DHT22;14254;50.968;5.366;2022-07-29T10:13:02;23.90;99.90
26623;DHT22;14254;50.968;5.366;2022-07-29T10:15:31;23.80;99.90
26623;DHT22;14254;50.968;5.366;2022-07-29T10:17:58;23.80;99.90
26623;DHT22;14254;50.968;5.366;2022-07-29T10:20:25;23.70;99.90
26623;DHT22;14254;50.968;5.366;2022-07-29T10:22:52;24.10;99.90
26623;DHT22;14254;50.968;5.366;2022-07-29T10:25:19;24.30;99.90
26623;DHT22;14254;50.968;5.366;2022-07-29T10:27:46;24.40;99.90
26623;DHT22;14254;50.968;5.366;2022-07-29T10:30:13;24.70;99.90
26623;DHT22;14254;50.968;5.366;2022-07-29T10:38:41;24.20;99.90
26623;DHT22;14254;50.968;5.366;2022-07-29T10:44:18;24.80;99.90
26623;DHT22;14254;50.968;5.366;2022-07-29T10:46:42;24.80;99.90
26623;DHT22;14254;50.968;5.366;2022-07-29T10:49:12;25.10;99.90
26623;DHT22;14254;50.968;5.366;2022-07-29T10:51:59;25.10;99.90
26623;DHT22;14254;50.968;5.366;2022-07-29T10:59:49;25.20;99.90
26623;DHT22;14254;50.968;5.366;2022-07-29T11:05:02;25.20;99.90
26623;DHT22;14254;50.968;5.366;2022-07-29T11:07:29;25.60;99.90
26623;DHT22;14254;50.968;5.366;2022-07-29T11:15:20;25.30;99.90
26623;DHT22;14254;50.968;5.366;2022-07-29T11:20:47;25.30;99.90
26623;DHT22;14254;50.968;5.366;2022-07-29T11:28:59;26.10;99.70
26623;DHT22;14254;50.968;5.366;2022-07-29T11:31:38;26.20;99.80
26623;DHT22;14254;50.968;5.366;2022-07-29T11:34:29;26.50;99.50
26623;DHT22;14254;50.968;5.366;2022-07-29T11:39:38;27.00;98.10
26623;DHT22;14254;50.968;5.366;2022-07-29T11:45:00;28.00;95.90
26623;DHT22;14254;50.968;5.366;2022-07-29T11:47:28;27.60;95.50
26623;DHT22;14254;50.968;5.366;2022-07-29T11:49:55;27.70;95.90
26623;DHT22;14254;50.968;5.366;2022-07-29T11:52:23;27.60;95.60
26623;DHT22;14254;50.968;5.366;2022-07-29T11:54:49;27.30;96.30
26623;DHT22;14254;50.968;5.366;2022-07-29T11:57:19;27.50;96.10
26623;DHT22;14254;50.968;5.366;2022-07-29T11:59:46;27.70;96.00
26623;DHT22;14254;50.968;5.366;2022-07-29T12:02:13;29.80;94.20
26623;DHT22;14254;50.968;5.366;2022-07-29T12:04:56;30.30;93.20
26623;DHT22;14254;50.968;5.366;2022-07-29T12:07:32;30.40;93.10
26623;DHT22;14254;50.968;5.366;2022-07-29T12:09:59;32.30;90.90
26623;DHT22;14254;50.968;5.366;2022-07-29T12:12:25;32.30;89.40
26623;DHT22;14254;50.968;5.366;2022-07-29T12:14:51;33.60;88.50
26623;DHT22;14254;50.968;5.366;2022-07-29T12:17:32;35.70;79.60
26623;DHT22;14254;50.968;5.366;2022-07-29T12:20:00;35.70;76.80
26623;DHT22;14254;50.968;5.366;2022-07-29T12:22:33;35.50;76.30
26623;DHT22;14254;50.968;5.366;2022-07-29T12:25:04;34.50;76.10
26623;DHT22;14254;50.968;5.366;2022-07-29T12:27:30;34.40;76.30
26623;DHT22;14254;50.968;5.366;2022-07-29T12:30:03;34.80;74.80
26623;DHT22;14254;50.968;5.366;2022-07-29T12:32:38;31.60;80.30
26623;DHT22;14254;50.968;5.366;2022-07-29T12:35:13;32.70;78.50
26623;DHT22;14254;50.968;5.366;2022-07-29T12:37:41;33.40;76.10
26623;DHT22;14254;50.968;5.366;2022-07-29T12:40:08;36.60;72.00
26623;DHT22;14254;50.968;5.366;2022-07-29T12:42:35;35.20;71.50
26623;DHT22;14254;50.968;5.366;2022-07-29T12:45:01;35.10;70.30
26623;DHT22;14254;50.968;5.366;2022-07-29T12:47:27;33.60;73.00
26623;DHT22;14254;50.968;5.366;2022-07-29T12:50:10;31.40;76.90
26623;DHT22;14254;50.968;5.366;2022-07-29T12:52:37;29.90;80.40
26623;DHT22;14254;50.968;5.366;2022-07-29T12:55:03;29.00;82.60
26623;DHT22;14254;50.968;5.366;2022-07-29T12:57:29;29.40;82.80
26623;DHT22;14254;50.968;5.366;2022-07-29T13:00:03;32.30;77.70
26623;DHT22;14254;50.968;5.366;2022-07-29T13:02:29;36.90;68.80
26623;DHT22;14254;50.968;5.366;2022-07-29T13:04:57;39.40;62.30
26623;DHT22;14254;50.968;5.366;2022-07-29T13:07:28;41.80;57.50
26623;DHT22;14254;50.968;5.366;2022-07-29T13:10:09;39.90;57.20
26623;DHT22;14254;50.968;5.366;2022-07-29T13:12:36;38.20;59.40
26623;DHT22;14254;50.968;5.366;2022-07-29T13:15:15;38.60;58.90
26623;DHT22;14254;50.968;5.366;2022-07-29T13:17:44;36.90;60.60
26623;DHT22;14254;50.968;5.366;2022-07-29T13:20:11;38.40;58.60
26623;DHT22;14254;50.968;5.366;2022-07-29T13:22:43;40.10;56.20
26623;DHT22;14254;50.968;5.366;2022-07-29T13:25:12;40.70;56.10
26623;DHT22;14254;50.968;5.366;2022-07-29T13:27:38;41.30;54.10
26623;DHT22;14254;50.968;5.366;2022-07-29T13:30:08;41.20;53.60
26623;DHT22;14254;50.968;5.366;2022-07-29T13:32:35;41.00;53.20
26623;DHT22;14254;50.968;5.366;2022-07-29T13:35:04;39.00;54.80
26623;DHT22;14254;50.968;5.366;2022-07-29T13:37:30;39.50;54.80
26623;DHT22;14254;50.968;5.366;2022-07-29T13:39:58;40.30;53.40
26623;DHT22;14254;50.968;5.366;2022-07-29T13:42:25;39.40;54.00
26623;DHT22;14254;50.968;5.366;2022-07-29T13:44:51;39.60;53.40
26623;DHT22;14254;50.968;5.366;2022-07-29T13:47:18;40.80;51.30
26623;DHT22;14254;50.968;5.366;2022-07-29T13:49:44;40.90;50.70
26623;DHT22;14254;50.968;5.366;2022-07-29T13:52:09;41.90;49.70
26623;DHT22;14254;50.968;5.366;2022-07-29T13:54:35;40.70;50.00
26623;DHT22;14254;50.968;5.366;2022-07-29T13:57:05;40.50;51.10
26623;DHT22;14254;50.968;5.366;2022-07-29T13:59:31;38.50;52.50
26623;DHT22;14254;50.968;5.366;2022-07-29T14:01:57;37.80;53.50
26623;DHT22;14254;50.968;5.366;2022-07-29T14:04:23;38.90;52.30
26623;DHT22;14254;50.968;5.366;2022-07-29T14:06:49;40.10;50.60
26623;DHT22;14254;50.968;5.366;2022-07-29T14:09:15;39.60;51.20
26623;DHT22;14254;50.968;5.366;2022-07-29T14:11:41;40.60;50.80
26623;DHT22;14254;50.968;5.366;2022-07-29T14:14:06;42.60;48.20
26623;DHT22;14254;50.968;5.366;2022-07-29T14:16:32;43.80;46.50
26623;DHT22;14254;50.968;5.366;2022-07-29T14:18:58;44.00;46.80
26623;DHT22;14254;50.968;5.366;2022-07-29T14:21:24;43.10;45.80
26623;DHT22;14254;50.968;5.366;2022-07-29T14:23:50;41.20;48.00
26623;DHT22;14254;50.968;5.366;2022-07-29T14:26:17;42.00;46.70
26623;DHT22;14254;50.968;5.366;2022-07-29T14:28:43;43.40;46.60
26623;DHT22;14254;50.968;5.366;2022-07-29T14:31:09;44.50;44.40
26623;DHT22;14254;50.968;5.366;2022-07-29T14:33:35;42.10;47.00
26623;DHT22;14254;50.968;5.366;2022-07-29T14:36:01;41.40;48.00
26623;DHT22;14254;50.968;5.366;2022-07-29T14:38:26;41.20;48.10
26623;DHT22;14254;50.968;5.366;2022-07-29T14:40:52;39.90;49.70
26623;DHT22;14254;50.968;5.366;2022-07-29T14:43:18;41.00;48.40
26623;DHT22;14254;50.968;5.366;2022-07-29T14:45:43;40.80;48.70
26623;DHT22;14254;50.968;5.366;2022-07-29T14:48:09;41.30;47.10
26623;DHT22;14254;50.968;5.366;2022-07-29T14:50:37;42.50;46.40
26623;DHT22;14254;50.968;5.366;2022-07-29T14:53:03;44.60;44.50
26623;DHT22;14254;50.968;5.366;2022-07-29T14:55:29;45.70;42.80
26623;DHT22;14254;50.968;5.366;2022-07-29T14:57:55;43.70;44.40
26623;DHT22;14254;50.968;5.366;2022-07-29T15:00:20;42.00;45.20
26623;DHT22;14254;50.968;5.366;2022-07-29T15:02:47;40.20;47.50
26623;DHT22;14254;50.968;5.366;2022-07-29T15:05:13;40.60;47.30
26623;DHT22;14254;50.968;5.366;2022-07-29T15:07:39;41.10;47.20
26623;DHT22;14254;50.968;5.366;2022-07-29T15:10:05;39.40;47.60
26623;DHT22;14254;50.968;5.366;2022-07-29T15:12:31;36.90;50.50
26623;DHT22;14254;50.968;5.366;2022-07-29T15:14:57;35.00;53.30
26623;DHT22;14254;50.968;5.366;2022-07-29T15:17:23;33.60;55.10
26623;DHT22;14254;50.968;5.366;2022-07-29T15:19:48;32.70;56.10
26623;DHT22;14254;50.968;5.366;2022-07-29T15:22:14;32.40;56.40
26623;DHT22;14254;50.968;5.366;2022-07-29T15:24:40;32.30;56.50
26623;DHT22;14254;50.968;5.366;2022-07-29T15:27:05;32.90;55.70
26623;DHT22;14254;50.968;5.366;2022-07-29T15:29:31;33.80;54.50
26623;DHT22;14254;50.968;5.366;2022-07-29T15:31:57;37.50;51.30
26623;DHT22;14254;50.968;5.366;2022-07-29T15:34:22;39.50;48.70
26623;DHT22;14254;50.968;5.366;2022-07-29T15:36:50;40.60;46.50
26623;DHT22;14254;50.968;5.366;2022-07-29T15:39:16;40.40;46.00
26623;DHT22;14254;50.968;5.366;2022-07-29T15:41:42;38.50;47.90
26623;DHT22;14254;50.968;5.366;2022-07-29T15:44:07;36.40;49.70
26623;DHT22;14254;50.968;5.366;2022-07-29T15:46:33;34.70;52.40
26623;DHT22;14254;50.968;5.366;2022-07-29T15:49:17;33.50;54.60
26623;DHT22;14254;50.968;5.366;2022-07-29T15:51:43;31.90;57.20
26623;DHT22;14254;50.968;5.366;2022-07-29T15:54:09;30.30;59.00
26623;DHT22;14254;50.968;5.366;2022-07-29T15:56:34;29.40;61.20
26623;DHT22;14254;50.968;5.366;2022-07-29T15:59:00;29.10;62.30
26623;DHT22;14254;50.968;5.366;2022-07-29T16:01:26;28.80;62.80
26623;DHT22;14254;50.968;5.366;2022-07-29T16:03:52;28.50;63.80
26623;DHT22;14254;50.968;5.366;2022-07-29T16:06:18;28.50;64.20
26623;DHT22;14254;50.968;5.366;2022-07-29T16:08:45;28.80;63.80
26623;DHT22;14254;50.968;5.366;2022-07-29T16:11:10;29.10;64.00
26623;DHT22;14254;50.968;5.366;2022-07-29T16:13:36;29.20;62.50
26623;DHT22;14254;50.968;5.366;2022-07-29T16:16:02;28.60;63.80
26623;DHT22;14254;50.968;5.366;2022-07-29T16:18:27;28.70;64.00
26623;DHT22;14254;50.968;5.366;2022-07-29T16:20:53;28.60;64.10
26623;DHT22;14254;50.968;5.366;2022-07-29T16:23:19;28.20;64.20
26623;DHT22;14254;50.968;5.366;2022-07-29T16:25:44;28.60;64.10